Terminal Aerodrome Forecast
Issued by NWS Billings, MT

Home | Current Version | Previous Version | Text Only | Print | Product List | Glossary On
Versions: 1 2 3 4 5 6 7 8 9 10 11 12 13 14 15 16 17 18 19 20 21 22 23 24 25 26 27 28 29 30 31
000
FTUS45 KBYZ 300534
TAFMLS
TAF
KMLS 300534Z 3006/3106 07006KT P6SM SKC
     FM300900 12013KT P6SM SCT100
     FM301600 15014G22KT P6SM SCT100
     FM302000 15016G21KT P6SM BKN080
     FM310000 12015G21KT P6SM VCTS BKN080CB=

USA.gov is the U.S. government's official web portal to all federal, state and local government web resources and services.